Time;durP1;ratioP1;P1;durP2;ratioP2;P2;SDS_P1;SDS_P2;PMS_P1;PMS_P2;Temp;Humidity;BMP_temperature;BMP_pressure;BME280_temperature;BME280_humidity;BME280_pressure;Samples;Min_cycle;Max_cycle;Signal;HPM_P1;HPM_P2
2021/05/30 00:01:33;;;;;;;6.57;3.63;;;;;;;;;;5023468;28;20052;-46
2021/05/30 00:03:58;;;;;;;9.57;2.95;;;;;;;;;;5021106;28;20037;-45
2021/05/30 00:06:27;;;;;;;3.88;3.42;;;;;;;;;;5019659;28;20080;-44
2021/05/30 00:08:54;;;;;;;14.90;9.20;;;;;;;;;;5020392;28;20558;-44
2021/05/30 00:11:19;;;;;;;8.20;3.53;;;;;;;;;;5022644;28;20641;-46
2021/05/30 00:13:45;;;;;;;6.38;2.33;;;;;;;;;;5018949;28;20058;-44
2021/05/30 00:16:10;;;;;;;6.05;2.88;;;;;;;;;;5021146;28;20030;-43
2021/05/30 00:18:35;;;;;;;6.05;2.90;;;;;;;;;;5021298;28;20538;-43
2021/05/30 00:21:01;;;;;;;6.93;3.20;;;;;;;;;;5021875;28;20614;-45
2021/05/30 00:23:26;;;;;;;4.57;2.28;;;;;;;;;;5020023;28;20502;-44
2021/05/30 00:25:51;;;;;;;5.57;2.55;;;;;;;;;;5020675;28;20057;-42
2021/05/30 00:28:17;;;;;;;2.88;2.00;;;;;;;;;;5022554;28;20485;-44
2021/05/30 00:30:42;;;;;;;3.00;2.33;;;;;;;;;;5019670;28;20451;-44
2021/05/30 00:33:07;;;;;;;4.63;2.97;;;;;;;;;;5021194;28;20414;-44
2021/05/30 00:35:33;;;;;;;6.10;2.90;;;;;;;;;;5020135;28;20136;-43
2021/05/30 00:37:58;;;;;;;5.28;2.65;;;;;;;;;;5016734;28;20112;-43
2021/05/30 00:40:23;;;;;;;4.72;2.45;;;;;;;;;;5024138;28;20025;-43
2021/05/30 00:42:49;;;;;;;3.85;3.13;;;;;;;;;;5020722;28;20061;-45
2021/05/30 00:45:14;;;;;;;3.72;2.40;;;;;;;;;;5019281;28;20026;-44
2021/05/30 00:47:40;;;;;;;3.70;2.08;;;;;;;;;;5021175;28;20045;-45
2021/05/30 00:50:06;;;;;;;3.80;2.53;;;;;;;;;;5017999;28;20037;-43
2021/05/30 00:52:31;;;;;;;5.18;3.28;;;;;;;;;;5016948;28;20041;-43
2021/05/30 00:54:58;;;;;;;2.67;2.28;;;;;;;;;;5017234;28;20032;-44
2021/05/30 00:57:23;;;;;;;5.05;2.20;;;;;;;;;;5019474;28;20542;-44
2021/05/30 00:59:49;;;;;;;4.00;2.08;;;;;;;;;;5017671;28;20034;-43
2021/05/30 01:02:15;;;;;;;5.05;2.55;;;;;;;;;;5021322;28;20026;-44
2021/05/30 01:04:40;;;;;;;5.43;2.75;;;;;;;;;;5020412;28;20521;-45
2021/05/30 01:07:06;;;;;;;3.88;2.50;;;;;;;;;;5019386;28;20037;-47
2021/05/30 01:09:33;;;;;;;3.30;2.78;;;;;;;;;;5018248;28;20026;-43
2021/05/30 01:11:58;;;;;;;3.60;2.60;;;;;;;;;;5019315;28;20479;-45
2021/05/30 01:14:24;;;;;;;3.20;1.92;;;;;;;;;;5020142;28;20025;-43
2021/05/30 01:16:49;;;;;;;2.25;1.50;;;;;;;;;;5017529;28;20041;-47
2021/05/30 01:19:15;;;;;;;3.10;2.20;;;;;;;;;;5019518;28;20116;-46
2021/05/30 01:21:42;;;;;;;2.20;1.63;;;;;;;;;;5021535;28;20403;-44
2021/05/30 01:24:07;;;;;;;5.55;2.25;;;;;;;;;;5018315;28;20080;-45
2021/05/30 01:26:33;;;;;;;2.80;1.58;;;;;;;;;;5017966;28;20034;-44
2021/05/30 01:28:58;;;;;;;5.40;2.72;;;;;;;;;;5014683;28;20120;-45
2021/05/30 01:31:26;;;;;;;5.22;2.85;;;;;;;;;;5023594;28;20411;-43
2021/05/30 01:33:52;;;;;;;4.88;3.08;;;;;;;;;;5020039;28;20022;-43
2021/05/30 01:36:17;;;;;;;3.55;2.15;;;;;;;;;;5020536;28;20037;-45
2021/05/30 01:38:43;;;;;;;6.07;2.50;;;;;;;;;;5017293;28;20038;-43
2021/05/30 01:41:08;;;;;;;4.35;2.35;;;;;;;;;;5014022;28;20045;-43
2021/05/30 01:43:34;;;;;;;3.13;1.70;;;;;;;;;;5016594;28;20406;-43
2021/05/30 01:45:59;;;;;;;2.92;1.88;;;;;;;;;;5021797;28;20025;-47
2021/05/30 01:48:25;;;;;;;6.03;2.25;;;;;;;;;;5020659;28;20462;-44
2021/05/30 01:50:50;;;;;;;3.67;1.52;;;;;;;;;;5019404;28;20609;-47
2021/05/30 01:53:16;;;;;;;5.30;2.45;;;;;;;;;;5032666;28;20037;-44
2021/05/30 01:58:14;;;;;;;2.58;1.95;;;;;;;;;;5017506;28;20493;-43
2021/05/30 02:00:39;;;;;;;6.03;2.30;;;;;;;;;;5020245;28;20060;-44
2021/05/30 02:03:06;;;;;;;4.43;2.35;;;;;;;;;;5011605;28;20064;-43
2021/05/30 02:05:32;;;;;;;3.95;2.15;;;;;;;;;;5018893;28;20041;-45
2021/05/30 02:07:59;;;;;;;2.88;1.45;;;;;;;;;;5018375;28;20120;-44
2021/05/30 02:10:24;;;;;;;2.25;1.73;;;;;;;;;;5016729;28;20030;-44
2021/05/30 02:12:50;;;;;;;7.75;1.80;;;;;;;;;;5018551;28;20077;-48
2021/05/30 02:15:16;;;;;;;2.97;1.77;;;;;;;;;;5019379;28;20050;-45
2021/05/30 02:17:41;;;;;;;3.60;1.77;;;;;;;;;;5019888;28;20434;-43
2021/05/30 02:20:08;;;;;;;2.92;2.13;;;;;;;;;;5019769;28;20537;-46
2021/05/30 02:22:33;;;;;;;2.55;1.73;;;;;;;;;;5017220;28;20041;-48
2021/05/30 02:24:58;;;;;;;3.70;1.83;;;;;;;;;;5019240;28;20033;-45
2021/05/30 02:27:24;;;;;;;6.03;2.38;;;;;;;;;;5014048;28;20038;-48
2021/05/30 02:29:50;;;;;;;3.95;2.33;;;;;;;;;;5030944;28;20699;-43
2021/05/30 02:32:15;;;;;;;1.55;1.13;;;;;;;;;;5016392;28;20029;-45
2021/05/30 02:34:42;;;;;;;4.07;2.08;;;;;;;;;;5015068;28;20120;-44
2021/05/30 02:37:08;;;;;;;3.28;1.70;;;;;;;;;;5017854;28;20026;-44
2021/05/30 02:39:33;;;;;;;4.80;3.00;;;;;;;;;;5015631;28;20026;-44
2021/05/30 02:41:59;;;;;;;5.30;3.22;;;;;;;;;;5012940;28;20107;-43
2021/05/30 02:44:24;;;;;;;6.72;2.90;;;;;;;;;;5016758;28;20494;-45
2021/05/30 02:46:50;;;;;;;6.43;2.45;;;;;;;;;;5022047;28;20041;-45
2021/05/30 02:49:16;;;;;;;2.55;1.85;;;;;;;;;;5020974;28;20033;-44
2021/05/30 02:51:42;;;;;;;8.10;1.83;;;;;;;;;;5022223;28;20109;-43
2021/05/30 02:54:07;;;;;;;5.95;2.75;;;;;;;;;;5017836;28;20601;-43
2021/05/30 02:56:32;;;;;;;3.65;1.90;;;;;;;;;;5019570;28;20056;-43
2021/05/30 02:58:58;;;;;;;3.70;2.17;;;;;;;;;;5017506;28;20486;-45
2021/05/30 03:01:23;;;;;;;5.55;3.45;;;;;;;;;;5017189;28;20068;-43
2021/05/30 03:03:49;;;;;;;5.50;2.83;;;;;;;;;;5021591;28;20038;-45
2021/05/30 03:06:15;;;;;;;6.20;1.95;;;;;;;;;;5018763;28;20433;-43
2021/05/30 03:08:40;;;;;;;3.85;2.40;;;;;;;;;;5020201;28;20483;-46
2021/05/30 03:11:06;;;;;;;2.88;1.67;;;;;;;;;;5017786;28;20135;-44
2021/05/30 03:13:31;;;;;;;2.83;2.00;;;;;;;;;;5016637;28;20038;-49
2021/05/30 03:15:57;;;;;;;2.72;1.92;;;;;;;;;;5016290;28;20044;-43
2021/05/30 03:18:22;;;;;;;4.00;2.03;;;;;;;;;;5017506;28;20046;-45
2021/05/30 03:20:47;;;;;;;3.65;2.00;;;;;;;;;;5016110;28;20030;-45
2021/05/30 03:23:13;;;;;;;3.28;1.90;;;;;;;;;;5014989;28;20116;-43
2021/05/30 03:25:38;;;;;;;3.67;1.63;;;;;;;;;;5017658;28;20481;-43
2021/05/30 03:28:04;;;;;;;3.65;2.22;;;;;;;;;;5018416;28;20463;-46
2021/05/30 03:30:29;;;;;;;2.70;1.88;;;;;;;;;;5015668;28;20061;-45
2021/05/30 03:32:55;;;;;;;4.88;2.10;;;;;;;;;;5014646;28;20026;-45
2021/05/30 03:35:20;;;;;;;3.33;1.80;;;;;;;;;;5019609;28;20239;-44
2021/05/30 03:37:46;;;;;;;2.30;2.00;;;;;;;;;;5019202;28;20201;-45
2021/05/30 03:40:25;;;;;;;6.40;2.55;;;;;;;;;;5017136;28;20030;-43
2021/05/30 03:42:52;;;;;;;3.03;1.73;;;;;;;;;;5019598;28;20124;-45
2021/05/30 03:45:18;;;;;;;4.30;2.92;;;;;;;;;;5017967;28;20487;-44
2021/05/30 03:47:44;;;;;;;4.20;1.85;;;;;;;;;;5019642;28;20112;-45
2021/05/30 03:50:09;;;;;;;5.85;1.83;;;;;;;;;;5023599;28;20584;-44
2021/05/30 03:52:35;;;;;;;4.68;3.78;;;;;;;;;;5020999;28;20041;-44
2021/05/30 03:55:00;;;;;;;3.13;1.67;;;;;;;;;;5021789;28;20129;-45
2021/05/30 03:57:25;;;;;;;2.42;1.50;;;;;;;;;;5023611;28;20062;-46
2021/05/30 03:59:51;;;;;;;4.68;1.65;;;;;;;;;;5020887;28;20091;-48
2021/05/30 04:02:16;;;;;;;2.13;1.27;;;;;;;;;;5020840;28;20533;-45
2021/05/30 04:04:41;;;;;;;4.53;1.45;;;;;;;;;;5017627;28;20128;-45
2021/05/30 04:07:06;;;;;;;3.10;1.77;;;;;;;;;;5019496;28;20025;-47
2021/05/30 04:09:32;;;;;;;3.33;2.10;;;;;;;;;;5020584;28;20052;-44
2021/05/30 04:11:58;;;;;;;4.25;1.30;;;;;;;;;;5020751;28;20502;-46
2021/05/30 04:14:23;;;;;;;9.93;3.45;;;;;;;;;;5020210;28;20095;-45
2021/05/30 04:16:48;;;;;;;3.50;2.13;;;;;;;;;;5021184;28;20034;-47
2021/05/30 04:19:14;;;;;;;2.35;1.40;;;;;;;;;;5021724;28;20025;-45
2021/05/30 04:21:39;;;;;;;3.92;1.98;;;;;;;;;;5022003;28;20030;-44
2021/05/30 04:24:05;;;;;;;7.72;2.33;;;;;;;;;;5021478;28;20053;-45
2021/05/30 04:26:30;;;;;;;3.15;2.25;;;;;;;;;;5020339;28;20114;-44
2021/05/30 04:28:55;;;;;;;4.05;2.15;;;;;;;;;;5022725;28;20034;-44
2021/05/30 04:31:21;;;;;;;12.52;2.08;;;;;;;;;;5019523;28;20038;-46
2021/05/30 04:33:46;;;;;;;3.05;1.38;;;;;;;;;;5018032;28;20033;-44
2021/05/30 04:36:11;;;;;;;4.50;1.88;;;;;;;;;;5015410;28;20033;-43
2021/05/30 04:38:36;;;;;;;3.17;1.58;;;;;;;;;;5019940;28;20482;-44
2021/05/30 04:41:02;;;;;;;2.72;2.05;;;;;;;;;;5021854;28;20113;-43
2021/05/30 04:43:27;;;;;;;3.30;1.70;;;;;;;;;;5018536;28;20030;-46
2021/05/30 04:45:53;;;;;;;2.25;1.55;;;;;;;;;;5020958;28;20513;-44
2021/05/30 04:48:18;;;;;;;6.70;2.38;;;;;;;;;;5022541;28;20043;-44
2021/05/30 04:51:04;;;;;;;7.75;2.08;;;;;;;;;;5018561;28;20033;-45
2021/05/30 04:53:28;;;;;;;3.72;1.80;;;;;;;;;;5020863;28;20211;-45
2021/05/30 04:55:54;;;;;;;3.42;2.03;;;;;;;;;;5019970;28;20121;-45
2021/05/30 04:58:19;;;;;;;4.68;2.33;;;;;;;;;;5017029;28;20026;-46
2021/05/30 05:00:44;;;;;;;6.68;2.28;;;;;;;;;;5018817;28;20049;-44
2021/05/30 05:03:09;;;;;;;2.95;2.10;;;;;;;;;;5018394;28;20116;-46
2021/05/30 05:05:35;;;;;;;4.75;2.00;;;;;;;;;;5016760;28;20399;-47
2021/05/30 05:08:00;;;;;;;3.08;2.78;;;;;;;;;;5018092;28;20037;-47
2021/05/30 05:10:26;;;;;;;4.03;2.38;;;;;;;;;;5016273;28;20080;-45
2021/05/30 05:12:51;;;;;;;4.63;1.98;;;;;;;;;;5021355;28;20034;-47
2021/05/30 05:15:16;;;;;;;7.15;2.05;;;;;;;;;;5017089;28;20487;-44
2021/05/30 05:17:41;;;;;;;2.72;1.30;;;;;;;;;;5021949;28;20026;-43
2021/05/30 05:20:07;;;;;;;2.25;1.35;;;;;;;;;;5019041;28;20025;-45
2021/05/30 05:22:32;;;;;;;2.88;1.95;;;;;;;;;;5017989;28;20132;-43
2021/05/30 05:24:58;;;;;;;3.42;1.63;;;;;;;;;;5021031;28;20033;-43
2021/05/30 05:27:23;;;;;;;4.82;2.75;;;;;;;;;;5020846;28;20038;-44
2021/05/30 05:29:48;;;;;;;5.00;2.53;;;;;;;;;;5021409;28;20060;-43
2021/05/30 05:32:13;;;;;;;2.20;1.77;;;;;;;;;;5033943;28;20045;-44
2021/05/30 05:34:39;;;;;;;2.65;2.10;;;;;;;;;;5020152;28;20068;-44
2021/05/30 05:37:04;;;;;;;6.20;2.00;;;;;;;;;;5022931;28;20310;-44
2021/05/30 05:39:31;;;;;;;4.63;2.63;;;;;;;;;;5019031;28;20048;-44
2021/05/30 05:41:56;;;;;;;6.85;3.28;;;;;;;;;;5021673;28;20033;-45
2021/05/30 05:44:21;;;;;;;4.93;2.72;;;;;;;;;;5017038;28;20492;-44
2021/05/30 05:46:46;;;;;;;8.25;4.45;;;;;;;;;;5020229;28;20053;-46
2021/05/30 05:49:12;;;;;;;29.08;5.65;;;;;;;;;;5021145;28;20022;-44
2021/05/30 05:51:37;;;;;;;5.13;3.78;;;;;;;;;;5020000;28;20056;-44
2021/05/30 05:54:02;;;;;;;5.15;3.13;;;;;;;;;;5005762;28;20462;-47
2021/05/30 05:56:28;;;;;;;9.20;3.95;;;;;;;;;;5018113;28;20025;-45
2021/05/30 05:58:54;;;;;;;4.22;3.38;;;;;;;;;;5018524;28;20045;-48
2021/05/30 06:01:19;;;;;;;5.15;3.55;;;;;;;;;;5019849;28;20124;-45
2021/05/30 06:03:45;;;;;;;11.40;7.85;;;;;;;;;;5017111;28;20556;-43
2021/05/30 06:06:10;;;;;;;21.38;11.88;;;;;;;;;;5019357;28;20071;-44
2021/05/30 06:08:35;;;;;;;9.40;5.30;;;;;;;;;;5018771;28;20040;-47
2021/05/30 06:11:01;;;;;;;8.98;6.57;;;;;;;;;;5017128;28;20778;-45
2021/05/30 06:13:26;;;;;;;9.82;6.07;;;;;;;;;;5017477;28;20119;-44
2021/05/30 06:15:51;;;;;;;9.90;5.43;;;;;;;;;;5012617;28;20041;-45
2021/05/30 06:18:18;;;;;;;5.43;2.95;;;;;;;;;;5016268;28;20080;-44
2021/05/30 06:20:44;;;;;;;4.18;3.05;;;;;;;;;;5018464;28;20129;-44
2021/05/30 06:23:10;;;;;;;3.75;2.28;;;;;;;;;;5013941;28;20104;-44
2021/05/30 06:25:36;;;;;;;7.18;2.70;;;;;;;;;;5016928;28;20128;-44
2021/05/30 06:28:01;;;;;;;5.47;3.92;;;;;;;;;;5015312;28;20101;-44
2021/05/30 06:30:33;;;;;;;4.65;3.08;;;;;;;;;;5014679;28;20517;-46
2021/05/30 06:32:59;;;;;;;8.05;5.00;;;;;;;;;;5018082;28;20088;-45
2021/05/30 06:35:26;;;;;;;4.55;3.40;;;;;;;;;;5014677;28;20442;-45
2021/05/30 06:37:52;;;;;;;8.48;5.05;;;;;;;;;;5014321;28;20088;-45
2021/05/30 06:40:17;;;;;;;14.20;7.68;;;;;;;;;;5020064;28;20042;-44
2021/05/30 06:42:42;;;;;;;20.27;15.10;;;;;;;;;;5013689;28;20026;-46
2021/05/30 06:45:08;;;;;;;23.55;16.95;;;;;;;;;;5016187;28;20039;-44
2021/05/30 06:47:33;;;;;;;29.63;21.35;;;;;;;;;;5013498;28;20104;-45
2021/05/30 06:49:59;;;;;;;37.63;26.23;;;;;;;;;;5014296;28;20041;-44
2021/05/30 06:52:24;;;;;;;56.58;37.85;;;;;;;;;;5015813;28;20041;-44
2021/05/30 06:54:50;;;;;;;52.97;42.22;;;;;;;;;;5015520;28;20037;-46
2021/05/30 06:57:16;;;;;;;58.35;35.08;;;;;;;;;;5016346;28;20091;-44
2021/05/30 06:59:41;;;;;;;44.42;31.50;;;;;;;;;;5014910;28;20053;-44
2021/05/30 07:02:06;;;;;;;68.65;44.10;;;;;;;;;;5016845;28;20045;-44
2021/05/30 07:04:32;;;;;;;329.90;256.95;;;;;;;;;;5016994;28;20496;-44
2021/05/30 07:06:57;;;;;;;134.30;100.18;;;;;;;;;;5016308;28;20030;-46
2021/05/30 07:09:23;;;;;;;91.88;70.20;;;;;;;;;;5017923;28;20603;-45
2021/05/30 07:11:48;;;;;;;63.83;46.42;;;;;;;;;;5016082;28;20025;-41
2021/05/30 07:14:14;;;;;;;49.28;40.92;;;;;;;;;;5014038;28;20038;-45
2021/05/30 07:19:42;;;;;;;79.30;58.08;;;;;;;;;;5015631;28;20086;-44
2021/05/30 07:22:07;;;;;;;62.08;45.63;;;;;;;;;;5022247;28;20033;-44
2021/05/30 07:24:33;;;;;;;61.90;42.90;;;;;;;;;;5018771;28;20124;-48
2021/05/30 07:26:58;;;;;;;84.90;58.78;;;;;;;;;;5016471;28;20038;-44
2021/05/30 07:29:24;;;;;;;73.88;55.58;;;;;;;;;;5018759;28;20140;-50
2021/05/30 07:31:49;;;;;;;44.15;28.48;;;;;;;;;;5022253;28;20121;-47
2021/05/30 07:34:14;;;;;;;17.45;12.20;;;;;;;;;;5019777;28;20030;-47
2021/05/30 07:36:40;;;;;;;11.95;8.77;;;;;;;;;;5020544;28;20034;-49
2021/05/30 07:39:06;;;;;;;11.68;9.85;;;;;;;;;;5022064;28;20074;-48
2021/05/30 07:41:32;;;;;;;15.93;9.95;;;;;;;;;;5020040;28;20032;-47
2021/05/30 07:43:57;;;;;;;8.90;7.03;;;;;;;;;;5018271;28;20576;-45
2021/05/30 07:46:22;;;;;;;7.90;5.25;;;;;;;;;;5020255;28;20030;-47
2021/05/30 07:48:48;;;;;;;5.25;3.22;;;;;;;;;;5020156;28;20487;-49
2021/05/30 07:51:13;;;;;;;10.75;6.10;;;;;;;;;;5017613;28;20037;-45
2021/05/30 07:53:38;;;;;;;12.52;4.07;;;;;;;;;;5019762;28;20037;-46
2021/05/30 07:56:04;;;;;;;4.90;3.38;;;;;;;;;;5017258;28;20029;-46
2021/05/30 07:58:30;;;;;;;2.75;2.33;;;;;;;;;;5019993;28;20541;-46
2021/05/30 08:00:55;;;;;;;5.18;1.88;;;;;;;;;;5020922;28;20111;-45
2021/05/30 08:03:22;;;;;;;5.85;3.35;;;;;;;;;;5019615;28;20030;-45
2021/05/30 08:05:47;;;;;;;8.23;4.53;;;;;;;;;;5021857;28;20129;-45
2021/05/30 08:08:13;;;;;;;5.85;4.20;;;;;;;;;;5020199;28;20491;-46
2021/05/30 08:10:39;;;;;;;6.57;4.53;;;;;;;;;;5017160;28;20029;-44
2021/05/30 08:13:04;;;;;;;12.10;8.25;;;;;;;;;;5020624;28;20048;-48
2021/05/30 08:15:29;;;;;;;14.57;9.75;;;;;;;;;;5016025;28;20483;-44
2021/05/30 08:17:55;;;;;;;12.93;10.15;;;;;;;;;;5015595;28;20064;-47
2021/05/30 08:20:21;;;;;;;37.30;25.27;;;;;;;;;;5016662;28;20021;-44
2021/05/30 08:22:47;;;;;;;18.58;12.20;;;;;;;;;;5020620;28;20034;-47
2021/05/30 08:25:13;;;;;;;57.90;40.13;;;;;;;;;;5017495;28;20666;-45
2021/05/30 08:27:38;;;;;;;51.13;45.25;;;;;;;;;;5015391;28;20140;-46
2021/05/30 08:30:05;;;;;;;34.33;27.00;;;;;;;;;;5015123;28;20135;-44
2021/05/30 08:32:30;;;;;;;25.98;19.05;;;;;;;;;;5019041;28;20068;-46
2021/05/30 08:34:55;;;;;;;32.92;22.20;;;;;;;;;;4999929;28;20130;-44
2021/05/30 08:37:21;;;;;;;40.45;23.13;;;;;;;;;;5020555;28;20561;-47
2021/05/30 08:39:47;;;;;;;20.08;17.13;;;;;;;;;;5020340;28;20642;-45
2021/05/30 08:42:12;;;;;;;24.67;12.40;;;;;;;;;;5032950;28;20033;-46
2021/05/30 08:44:38;;;;;;;13.18;8.25;;;;;;;;;;5017365;28;20029;-44
2021/05/30 08:47:03;;;;;;;13.50;8.48;;;;;;;;;;5016464;28;20038;-46
2021/05/30 08:49:29;;;;;;;12.25;7.63;;;;;;;;;;5020739;28;20030;-47
2021/05/30 08:51:54;;;;;;;7.07;4.80;;;;;;;;;;4999684;28;20042;-44
2021/05/30 08:54:20;;;;;;;6.25;4.53;;;;;;;;;;5017661;28;20037;-46
2021/05/30 08:56:47;;;;;;;11.07;7.80;;;;;;;;;;5017298;28;20459;-47
2021/05/30 08:59:32;;;;;;;14.52;6.28;;;;;;;;;;5015710;28;20033;-44
2021/05/30 09:01:59;;;;;;;9.65;3.35;;;;;;;;;;5018444;28;20041;-44
2021/05/30 09:04:31;;;;;;;5.28;3.40;;;;;;;;;;5016432;28;20236;-45
2021/05/30 09:06:57;;;;;;;3.20;2.53;;;;;;;;;;5017536;28;20029;-49
2021/05/30 09:09:22;;;;;;;3.95;2.58;;;;;;;;;;5018848;28;20117;-46
2021/05/30 09:11:48;;;;;;;3.95;1.88;;;;;;;;;;5018249;28;20030;-44
2021/05/30 09:14:17;;;;;;;6.05;1.77;;;;;;;;;;5014868;28;20510;-43
2021/05/30 09:17:02;;;;;;;3.08;1.65;;;;;;;;;;5014883;28;20046;-45
2021/05/30 09:19:47;;;;;;;3.55;1.42;;;;;;;;;;5018945;28;20136;-45
2021/05/30 09:22:15;;;;;;;6.30;1.58;;;;;;;;;;5018031;28;20138;-47
2021/05/30 09:24:41;;;;;;;2.45;1.40;;;;;;;;;;5015400;28;20033;-44
2021/05/30 09:27:08;;;;;;;9.13;1.38;;;;;;;;;;5015560;28;20037;-51
2021/05/30 09:29:33;;;;;;;14.25;1.88;;;;;;;;;;5015071;28;20033;-49
2021/05/30 09:31:59;;;;;;;3.75;1.42;;;;;;;;;;5014043;28;20044;-44
2021/05/30 09:34:37;;;;;;;7.05;1.30;;;;;;;;;;5017740;28;20040;-45
2021/05/30 09:37:03;;;;;;;2.35;1.45;;;;;;;;;;5015487;28;20041;-46
2021/05/30 09:39:35;;;;;;;7.00;2.15;;;;;;;;;;5015086;28;20122;-45
2021/05/30 09:42:19;;;;;;;3.05;1.92;;;;;;;;;;5018014;28;20104;-48
2021/05/30 09:45:02;;;;;;;6.45;1.63;;;;;;;;;;5013737;28;20038;-47
2021/05/30 09:47:35;;;;;;;3.63;1.92;;;;;;;;;;5014626;28;20026;-46
2021/05/30 09:50:01;;;;;;;4.63;1.83;;;;;;;;;;5017611;28;20779;-44
2021/05/30 09:52:36;;;;;;;5.55;2.00;;;;;;;;;;5015682;28;20049;-47
2021/05/30 09:55:10;;;;;;;1.42;0.80;;;;;;;;;;5019388;28;20034;-45
2021/05/30 09:57:36;;;;;;;3.63;1.70;;;;;;;;;;5012463;28;20048;-44
2021/05/30 10:00:01;;;;;;;3.58;1.08;;;;;;;;;;5012886;28;20491;-46
2021/05/30 10:02:26;;;;;;;1.75;1.23;;;;;;;;;;5017871;28;20053;-44
2021/05/30 10:04:52;;;;;;;1.80;0.95;;;;;;;;;;5014593;28;20033;-47
2021/05/30 10:07:19;;;;;;;2.67;1.30;;;;;;;;;;5013889;28;20060;-44
2021/05/30 10:09:45;;;;;;;3.10;0.60;;;;;;;;;;5016030;28;20514;-44
2021/05/30 10:12:10;;;;;;;2.25;0.77;;;;;;;;;;5016503;28;20068;-46
2021/05/30 10:14:37;;;;;;;1.50;0.82;;;;;;;;;;5016169;28;20117;-45
2021/05/30 10:17:02;;;;;;;2.53;1.25;;;;;;;;;;5014323;28;20041;-45
2021/05/30 10:19:36;;;;;;;1.58;1.00;;;;;;;;;;5013020;28;20034;-44
2021/05/30 10:22:02;;;;;;;13.05;1.20;;;;;;;;;;5013556;28;20446;-47
2021/05/30 10:24:32;;;;;;;3.83;0.95;;;;;;;;;;5012983;28;20099;-45
2021/05/30 10:27:14;;;;;;;10.32;2.20;;;;;;;;;;5013778;28;20037;-44
2021/05/30 10:29:40;;;;;;;1.88;0.82;;;;;;;;;;5014833;28;20502;-44
2021/05/30 10:32:15;;;;;;;2.90;0.98;;;;;;;;;;5015518;28;20041;-43
2021/05/30 10:35:00;;;;;;;2.65;0.90;;;;;;;;;;5017897;28;20072;-45
2021/05/30 10:37:26;;;;;;;5.28;1.08;;;;;;;;;;5016627;28;20131;-45
2021/05/30 10:39:52;;;;;;;1.33;0.73;;;;;;;;;;5016102;28;20685;-46
2021/05/30 10:42:25;;;;;;;2.97;0.80;;;;;;;;;;5016202;28;20037;-47
2021/05/30 10:44:52;;;;;;;1.75;0.57;;;;;;;;;;5016301;28;20045;-44
2021/05/30 10:47:18;;;;;;;1.25;0.45;;;;;;;;;;5016444;28;20034;-45
2021/05/30 10:50:02;;;;;;;2.35;1.75;;;;;;;;;;5017334;28;20410;-48
2021/05/30 10:52:37;;;;;;;0.90;0.75;;;;;;;;;;5014947;28;20052;-44
2021/05/30 10:55:29;;;;;;;7.03;2.33;;;;;;;;;;5013770;28;20117;-47
2021/05/30 10:57:55;;;;;;;0.98;0.60;;;;;;;;;;5013154;28;20048;-44
2021/05/30 11:00:20;;;;;;;1.55;1.00;;;;;;;;;;5018510;28;20050;-47
2021/05/30 11:03:01;;;;;;;2.47;0.75;;;;;;;;;;5015870;28;20120;-45
2021/05/30 11:05:46;;;;;;;0.93;0.52;;;;;;;;;;5012708;28;20113;-43
2021/05/30 11:08:33;;;;;;;2.50;1.35;;;;;;;;;;5014075;28;20037;-46
2021/05/30 11:11:16;;;;;;;0.98;0.50;;;;;;;;;;5016970;28;20049;-45
2021/05/30 11:13:51;;;;;;;2.08;1.13;;;;;;;;;;5012650;28;20046;-46
2021/05/30 11:16:19;;;;;;;5.25;1.70;;;;;;;;;;5013580;28;20141;-47
2021/05/30 11:18:44;;;;;;;2.53;1.70;;;;;;;;;;5021961;28;20124;-44
2021/05/30 11:21:09;;;;;;;1.75;0.60;;;;;;;;;;5016786;28;20161;-51
2021/05/30 11:23:35;;;;;;;2.50;1.30;;;;;;;;;;5015609;28;20061;-44
2021/05/30 11:26:00;;;;;;;8.77;1.08;;;;;;;;;;5015178;28;20029;-49
2021/05/30 11:28:26;;;;;;;2.72;1.10;;;;;;;;;;5016476;28;20034;-47
2021/05/30 11:30:52;;;;;;;1.95;0.70;;;;;;;;;;5015635;28;20065;-45
2021/05/30 11:33:24;;;;;;;3.90;1.23;;;;;;;;;;5013477;28;20057;-46
2021/05/30 11:35:51;;;;;;;1.50;0.90;;;;;;;;;;5015435;28;20092;-44
2021/05/30 11:38:16;;;;;;;2.67;1.10;;;;;;;;;;5016808;28;20427;-44
2021/05/30 11:40:41;;;;;;;5.40;1.35;;;;;;;;;;5018997;28;20065;-50
2021/05/30 11:43:14;;;;;;;7.05;1.00;;;;;;;;;;5016301;28;20145;-45
2021/05/30 11:45:41;;;;;;;1.95;1.05;;;;;;;;;;5017200;28;20030;-45
2021/05/30 11:48:10;;;;;;;1.33;0.90;;;;;;;;;;5020626;28;20453;-44
2021/05/30 11:50:38;;;;;;;3.08;1.08;;;;;;;;;;5016358;28;20068;-47
2021/05/30 11:53:24;;;;;;;4.55;0.85;;;;;;;;;;5016782;28;20113;-46
2021/05/30 11:55:50;;;;;;;2.80;1.13;;;;;;;;;;5011248;28;20077;-45
2021/05/30 11:58:15;;;;;;;11.70;2.38;;;;;;;;;;5015255;28;20530;-44
2021/05/30 12:00:40;;;;;;;2.75;1.23;;;;;;;;;;5019601;28;20045;-45
2021/05/30 12:03:12;;;;;;;3.63;1.23;;;;;;;;;;5015646;28;20052;-48
2021/05/30 12:05:38;;;;;;;2.35;1.17;;;;;;;;;;5013764;28;20034;-47
2021/05/30 12:08:16;;;;;;;2.75;1.23;;;;;;;;;;5019745;28;20060;-44
2021/05/30 12:10:52;;;;;;;2.47;1.17;;;;;;;;;;5017853;28;20495;-45
2021/05/30 12:13:27;;;;;;;1.00;0.63;;;;;;;;;;5019930;28;20128;-48
2021/05/30 12:15:53;;;;;;;1.30;0.90;;;;;;;;;;5018258;28;20037;-45
2021/05/30 12:18:18;;;;;;;4.38;1.10;;;;;;;;;;5020293;28;20074;-45
2021/05/30 12:20:44;;;;;;;0.70;0.50;;;;;;;;;;5025584;28;20141;-46
2021/05/30 12:23:19;;;;;;;1.88;0.40;;;;;;;;;;5026197;28;20558;-45
2021/05/30 12:25:55;;;;;;;1.13;0.82;;;;;;;;;;5021969;28;20073;-44
2021/05/30 12:28:22;;;;;;;4.57;1.67;;;;;;;;;;5019375;28;20482;-46
2021/05/30 12:30:48;;;;;;;1.75;0.93;;;;;;;;;;5019914;28;20133;-46
2021/05/30 12:33:14;;;;;;;5.90;1.17;;;;;;;;;;5020261;28;20056;-47
2021/05/30 12:35:43;;;;;;;3.00;1.52;;;;;;;;;;5020974;28;20038;-44
2021/05/30 12:38:12;;;;;;;1.05;0.55;;;;;;;;;;5021265;28;20038;-45
2021/05/30 12:40:37;;;;;;;1.13;0.57;;;;;;;;;;5017883;28;20030;-46
2021/05/30 12:43:03;;;;;;;2.10;1.35;;;;;;;;;;5020767;28;20494;-47
2021/05/30 12:45:30;;;;;;;2.03;0.50;;;;;;;;;;5018731;28;20811;-45
2021/05/30 12:47:56;;;;;;;2.63;0.70;;;;;;;;;;5019470;28;20038;-48
2021/05/30 12:50:24;;;;;;;2.58;1.08;;;;;;;;;;5021760;28;20094;-44
2021/05/30 12:52:51;;;;;;;2.45;1.20;;;;;;;;;;5018732;28;20762;-48
2021/05/30 12:55:18;;;;;;;2.17;1.38;;;;;;;;;;5021157;28;20030;-44
2021/05/30 12:57:48;;;;;;;2.58;0.70;;;;;;;;;;5018182;28;20034;-45
2021/05/30 13:00:34;;;;;;;2.60;1.03;;;;;;;;;;5021972;28;20057;-48
2021/05/30 13:03:00;;;;;;;0.88;0.68;;;;;;;;;;5021983;28;20255;-46
2021/05/30 13:05:32;;;;;;;1.05;0.45;;;;;;;;;;5024890;28;20029;-46
2021/05/30 13:07:58;;;;;;;3.08;1.00;;;;;;;;;;5020778;28;20037;-44
2021/05/30 13:10:23;;;;;;;3.00;0.60;;;;;;;;;;5019693;28;20044;-47
2021/05/30 13:12:49;;;;;;;1.67;0.75;;;;;;;;;;5019676;28;20035;-46
2021/05/30 13:15:17;;;;;;;0.47;0.30;;;;;;;;;;5018355;28;20558;-47
2021/05/30 13:18:03;;;;;;;1.90;0.75;;;;;;;;;;5022604;28;20026;-49
2021/05/30 13:20:36;;;;;;;1.90;0.57;;;;;;;;;;5015706;28;20029;-49
2021/05/30 13:23:14;;;;;;;1.02;0.50;;;;;;;;;;5016447;28;20030;-45
2021/05/30 13:25:49;;;;;;;0.98;0.68;;;;;;;;;;5019250;28;20030;-46
2021/05/30 13:28:18;;;;;;;10.13;2.00;;;;;;;;;;5019393;28;20149;-44
2021/05/30 13:30:45;;;;;;;2.20;0.82;;;;;;;;;;5018364;28;20033;-45
2021/05/30 13:33:10;;;;;;;4.18;1.80;;;;;;;;;;5022411;28;20557;-44
2021/05/30 13:35:35;;;;;;;8.25;1.08;;;;;;;;;;5020208;28;20038;-46
2021/05/30 13:38:01;;;;;;;5.28;0.98;;;;;;;;;;5018261;28;20394;-45
2021/05/30 13:40:33;;;;;;;1.70;0.68;;;;;;;;;;5018178;28;20399;-46
2021/05/30 13:42:58;;;;;;;2.00;0.70;;;;;;;;;;5015844;28;20026;-45
2021/05/30 13:45:23;;;;;;;1.38;0.90;;;;;;;;;;5019964;28;20490;-47
2021/05/30 13:47:48;;;;;;;2.08;0.63;;;;;;;;;;5021856;28;20095;-44
2021/05/30 13:50:14;;;;;;;1.70;0.82;;;;;;;;;;5015766;28;20049;-44
2021/05/30 13:52:39;;;;;;;1.10;0.52;;;;;;;;;;5021958;28;20105;-44
2021/05/30 13:55:05;;;;;;;1.55;0.70;;;;;;;;;;5021128;28;20700;-46
2021/05/30 13:57:30;;;;;;;0.73;0.50;;;;;;;;;;5019926;28;20049;-46
2021/05/30 13:59:55;;;;;;;4.30;0.85;;;;;;;;;;5017238;28;20503;-46
2021/05/30 14:02:23;;;;;;;1.35;0.60;;;;;;;;;;5020818;28;20038;-45
2021/05/30 14:04:48;;;;;;;0.95;0.80;;;;;;;;;;5015247;28;20084;-46
2021/05/30 14:07:13;;;;;;;1.85;0.93;;;;;;;;;;5018421;28;20042;-50
2021/05/30 14:09:38;;;;;;;2.47;0.98;;;;;;;;;;5018374;28;20041;-47
2021/05/30 14:12:04;;;;;;;3.22;0.75;;;;;;;;;;5020293;28;20121;-44
2021/05/30 14:14:29;;;;;;;2.00;1.25;;;;;;;;;;5018110;28;20468;-47
2021/05/30 14:16:55;;;;;;;8.77;1.27;;;;;;;;;;5016490;28;20624;-45
2021/05/30 14:19:20;;;;;;;1.02;0.63;;;;;;;;;;5018856;28;20044;-46
2021/05/30 14:21:45;;;;;;;1.48;0.80;;;;;;;;;;5017168;28;20264;-50
2021/05/30 14:24:11;;;;;;;3.95;1.20;;;;;;;;;;5016954;28;20491;-47
2021/05/30 14:26:36;;;;;;;7.78;1.30;;;;;;;;;;5016499;28;20125;-49
2021/05/30 14:29:02;;;;;;;3.78;1.27;;;;;;;;;;5016144;28;20391;-47
2021/05/30 14:31:27;;;;;;;2.50;1.52;;;;;;;;;;5015891;28;20418;-46
2021/05/30 14:33:52;;;;;;;2.58;1.40;;;;;;;;;;5019871;28;20025;-46
2021/05/30 14:36:17;;;;;;;1.95;1.02;;;;;;;;;;5018900;28;20479;-49
2021/05/30 14:38:43;;;;;;;6.63;1.77;;;;;;;;;;5019025;28;20112;-47
2021/05/30 14:41:09;;;;;;;1.58;1.10;;;;;;;;;;5020232;28;20120;-47
2021/05/30 14:43:35;;;;;;;1.55;0.90;;;;;;;;;;5017464;28;20225;-47
2021/05/30 14:46:00;;;;;;;1.55;0.85;;;;;;;;;;5021129;28;20046;-45